createdAt,value
2022-12-16T00:00:20.558Z,65.55
2022-12-16T00:01:28.584Z,64.00
2022-12-16T00:02:32.433Z,65.77
2022-12-16T00:03:40.966Z,69.94
2022-12-16T00:04:44.862Z,64.68
2022-12-16T00:05:53.036Z,62.43
2022-12-16T00:06:58.662Z,66.31
2022-12-16T00:08:08.049Z,66.10
2022-12-16T00:09:12.932Z,64.33
2022-12-16T00:10:20.489Z,64.31
2022-12-16T00:11:24.800Z,63.28
2022-12-16T00:12:30.995Z,61.71
2022-12-16T00:13:40.531Z,63.91
2022-12-16T00:14:47.359Z,62.93
2022-12-16T00:15:50.685Z,64.66
2022-12-16T00:16:56.593Z,66.28
2022-12-16T00:17:59.958Z,62.02
2022-12-16T00:19:06.256Z,63.88
2022-12-16T00:20:12.555Z,64.18
2022-12-16T00:21:18.885Z,75.91
2022-12-16T00:22:22.851Z,61.33
2022-12-16T00:23:32.514Z,63.81
2022-12-16T00:24:36.516Z,62.54
2022-12-16T00:25:46.048Z,63.23
2022-12-16T00:26:52.605Z,69.23
2022-12-16T00:28:00.468Z,66.04
2022-12-16T00:29:07.280Z,63.97
2022-12-16T00:30:15.257Z,64.48
2022-12-16T00:31:22.115Z,64.89
2022-12-16T00:32:25.497Z,64.30
2022-12-16T00:33:32.573Z,66.24
2022-12-16T00:34:36.273Z,65.31
2022-12-16T00:35:45.886Z,68.65
2022-12-16T00:36:52.992Z,64.63
2022-12-16T00:37:56.335Z,66.33
2022-12-16T00:39:06.438Z,66.31
2022-12-16T00:40:11.976Z,65.48
2022-12-16T00:41:17.976Z,65.83
2022-12-16T00:42:22.200Z,63.80
2022-12-16T00:43:28.552Z,67.09
2022-12-16T00:44:32.058Z,65.09
2022-12-16T00:45:39.305Z,65.92
2022-12-16T00:46:42.842Z,65.60
2022-12-16T00:47:54.407Z,66.98
2022-12-16T00:48:58.616Z,65.06
2022-12-16T00:50:05.128Z,64.12
2022-12-16T00:51:08.535Z,65.17
2022-12-16T00:52:14.409Z,66.60
2022-12-16T00:53:18.993Z,69.28
2022-12-16T00:54:32.116Z,64.64
2022-12-16T00:55:35.450Z,65.99
2022-12-16T00:56:41.508Z,65.25
2022-12-16T00:57:45.758Z,64.80
2022-12-16T00:58:52.520Z,66.44
2022-12-16T00:59:58.224Z,64.25
2022-12-16T01:01:06.025Z,63.55
2022-12-16T01:02:11.332Z,63.47
2022-12-16T01:03:21.470Z,70.12
2022-12-16T01:04:29.678Z,67.36
2022-12-16T01:05:33.084Z,71.01
2022-12-16T01:06:39.117Z,71.35
2022-12-16T01:07:42.994Z,70.59
2022-12-16T01:08:49.485Z,70.67
2022-12-16T01:09:56.271Z,74.23
2022-12-16T01:11:02.278Z,74.81
2022-12-16T01:12:06.646Z,77.49
2022-12-16T01:13:12.922Z,79.70
2022-12-16T01:14:19.652Z,77.23
2022-12-16T01:15:24.290Z,75.49
2022-12-16T01:16:30.424Z,71.58
2022-12-16T01:17:35.303Z,72.40
2022-12-16T01:18:41.573Z,73.12
2022-12-16T01:19:47.569Z,68.50
2022-12-16T01:20:51.881Z,66.81
2022-12-16T01:21:57.825Z,66.78
2022-12-16T01:23:01.532Z,66.22
2022-12-16T01:24:13.315Z,66.55
2022-12-16T01:25:19.432Z,64.64
2022-12-16T01:26:26.972Z,69.82
2022-12-16T01:27:30.899Z,66.41
2022-12-16T01:28:36.852Z,68.36
2022-12-16T01:29:40.806Z,63.06
2022-12-16T01:30:46.767Z,64.10
2022-12-16T01:31:51.560Z,66.96
2022-12-16T01:32:58.241Z,69.12
2022-12-16T01:34:01.529Z,68.20
2022-12-16T01:35:29.489Z,65.84
2022-12-16T01:36:35.626Z,62.37
2022-12-16T01:37:40.089Z,66.79
2022-12-16T01:38:48.084Z,68.82
2022-12-16T01:39:52.580Z,68.91
2022-12-16T01:41:01.364Z,65.72
2022-12-16T01:42:12.368Z,64.42
2022-12-16T01:43:24.427Z,65.22
2022-12-16T01:44:28.290Z,65.01
2022-12-16T01:45:38.924Z,63.92
2022-12-16T01:46:47.645Z,64.47
2022-12-16T01:47:58.064Z,65.54
2022-12-16T01:49:14.401Z,63.97
2022-12-16T01:50:19.558Z,64.66
2022-12-16T01:51:33.215Z,68.67
2022-12-16T01:52:44.442Z,66.57
2022-12-16T01:53:58.976Z,64.89
2022-12-16T01:55:12.439Z,66.68
2022-12-16T01:56:27.718Z,63.34
2022-12-16T01:57:41.151Z,65.83
2022-12-16T01:58:49.748Z,63.96
2022-12-16T01:59:57.940Z,63.84
2022-12-16T02:01:06.403Z,63.74
2022-12-16T02:02:12.172Z,64.60
2022-12-16T02:03:19.869Z,62.58
2022-12-16T02:04:23.411Z,61.76
2022-12-16T02:05:32.041Z,63.70
2022-12-16T02:06:36.212Z,61.37
2022-12-16T02:07:42.105Z,61.43
2022-12-16T02:08:47.981Z,63.05
2022-12-16T02:09:52.167Z,64.13
2022-12-16T02:11:26.850Z,61.51
2022-12-16T02:12:52.510Z,63.03
2022-12-16T02:14:39.196Z,61.28
2022-12-16T02:15:57.843Z,63.13
2022-12-16T02:17:17.485Z,62.45
2022-12-16T02:18:39.702Z,64.52
2022-12-16T02:20:19.883Z,64.79
2022-12-16T02:21:51.840Z,61.89
2022-12-16T02:23:37.016Z,68.02
2022-12-16T02:25:35.637Z,68.20
2022-12-16T02:27:30.208Z,64.18
2022-12-16T02:29:12.886Z,65.38
2022-12-16T02:30:56.508Z,65.17
2022-12-16T02:32:20.139Z,65.43
2022-12-16T02:34:13.617Z,65.69
2022-12-16T02:35:36.065Z,59.75
2022-12-16T02:37:05.871Z,61.41
2022-12-16T02:38:29.019Z,64.38
2022-12-16T02:39:40.134Z,67.21
2022-12-16T02:40:58.791Z,63.03
2022-12-16T02:42:17.450Z,62.02
2022-12-16T02:43:53.633Z,63.94
2022-12-16T02:45:09.196Z,62.96
2022-12-16T02:46:20.164Z,63.94
2022-12-16T02:47:27.206Z,65.33
2022-12-16T02:48:30.805Z,62.39
2022-12-16T02:49:53.177Z,65.82
2022-12-16T02:50:56.984Z,62.81
2022-12-16T02:52:05.492Z,64.22
2022-12-16T02:53:13.871Z,63.37
2022-12-16T02:54:19.449Z,66.55
2022-12-16T02:55:41.454Z,64.20
2022-12-16T02:57:06.085Z,67.57
2022-12-16T02:58:28.244Z,62.75
2022-12-16T02:59:49.757Z,61.76
2022-12-16T03:01:11.961Z,62.79
2022-12-16T03:02:31.383Z,64.91
2022-12-16T03:03:49.780Z,65.36
2022-12-16T03:05:08.938Z,63.29
2022-12-16T03:06:22.266Z,64.16
2022-12-16T03:07:32.515Z,64.55
2022-12-16T03:08:47.212Z,70.04
2022-12-16T03:09:55.311Z,71.02
2022-12-16T03:11:08.389Z,66.99
2022-12-16T03:12:18.569Z,67.98
2022-12-16T03:13:28.064Z,68.47
2022-12-16T03:14:39.696Z,67.59
2022-12-16T03:15:51.590Z,68.74
2022-12-16T03:16:56.117Z,66.95
2022-12-16T03:18:10.873Z,72.04
2022-12-16T03:19:14.871Z,70.06
2022-12-16T03:20:30.455Z,73.70
2022-12-16T03:21:48.120Z,68.09
2022-12-16T03:22:55.827Z,64.47
2022-12-16T03:24:08.555Z,65.95
2022-12-16T03:25:12.744Z,64.89
2022-12-16T03:26:27.999Z,64.90
2022-12-16T03:27:46.752Z,65.16
2022-12-16T03:29:02.256Z,64.49
2022-12-16T03:30:13.556Z,64.94
2022-12-16T03:31:41.918Z,66.39
2022-12-16T03:32:57.182Z,65.77
2022-12-16T03:34:17.936Z,67.96
2022-12-16T03:35:29.267Z,66.91
2022-12-16T03:36:42.856Z,66.82
2022-12-16T03:37:53.371Z,68.55
2022-12-16T03:39:02.820Z,67.88
2022-12-16T03:40:14.887Z,65.59
2022-12-16T03:41:24.136Z,65.50
2022-12-16T03:42:31.590Z,66.87
2022-12-16T03:43:35.560Z,70.82
2022-12-16T03:44:42.776Z,67.70
2022-12-16T03:45:52.091Z,66.25
2022-12-16T03:46:58.226Z,68.67
2022-12-16T03:48:02.426Z,67.55
2022-12-16T03:49:11.023Z,69.98
2022-12-16T03:50:14.760Z,68.56
2022-12-16T03:51:21.739Z,68.64
2022-12-16T03:52:25.105Z,70.24
2022-12-16T03:53:32.350Z,70.79
2022-12-16T03:54:38.600Z,69.94
2022-12-16T03:55:41.918Z,67.54
2022-12-16T03:56:47.883Z,70.53
2022-12-16T03:57:51.293Z,70.94
2022-12-16T03:58:58.919Z,69.98
2022-12-16T04:00:02.296Z,69.52
2022-12-16T04:01:18.642Z,69.10
2022-12-16T04:02:22.249Z,70.27
2022-12-16T04:03:28.339Z,69.83
2022-12-16T04:04:35.231Z,70.35
2022-12-16T04:05:41.703Z,70.06
2022-12-16T04:06:45.095Z,68.37
2022-12-16T04:07:51.080Z,66.45
2022-12-16T04:08:54.575Z,69.35
2022-12-16T04:10:01.376Z,69.69
2022-12-16T04:11:19.735Z,70.35
2022-12-16T04:12:38.287Z,66.83
2022-12-16T04:13:56.668Z,71.23
2022-12-16T04:15:15.903Z,70.36
2022-12-16T04:16:34.183Z,68.48
2022-12-16T04:17:52.804Z,69.68
2022-12-16T04:19:11.356Z,70.17
2022-12-16T04:20:40.114Z,65.84
2022-12-16T04:21:58.532Z,67.90
2022-12-16T04:23:17.788Z,67.30
2022-12-16T04:24:32.036Z,67.14
2022-12-16T04:25:41.504Z,68.35
2022-12-16T04:26:59.768Z,65.92
2022-12-16T04:28:06.548Z,62.79
2022-12-16T04:29:09.854Z,61.81
2022-12-16T04:30:23.295Z,65.60
2022-12-16T04:31:27.637Z,63.78
2022-12-16T04:32:56.204Z,62.94
2022-12-16T04:34:14.595Z,59.03
2022-12-16T04:35:36.779Z,61.67
2022-12-16T04:37:04.645Z,62.81
2022-12-16T04:38:23.094Z,60.71
2022-12-16T04:39:50.185Z,58.42
2022-12-16T04:41:08.709Z,59.60
2022-12-16T04:42:27.664Z,63.72
2022-12-16T04:43:46.074Z,62.74
2022-12-16T04:45:04.596Z,62.28
2022-12-16T04:46:23.069Z,62.73
2022-12-16T04:47:42.297Z,62.94
2022-12-16T04:49:00.698Z,63.80
2022-12-16T04:50:19.347Z,63.12
2022-12-16T04:51:40.244Z,63.32
2022-12-16T04:52:59.341Z,63.13
2022-12-16T04:54:17.988Z,65.22
2022-12-16T04:55:36.481Z,64.94
2022-12-16T04:56:54.770Z,65.45
2022-12-16T04:58:17.385Z,64.41
2022-12-16T04:59:35.732Z,65.68
2022-12-16T05:00:55.751Z,67.22
2022-12-16T05:02:14.529Z,68.69
2022-12-16T05:03:33.859Z,68.90
2022-12-16T05:04:52.456Z,70.29
2022-12-16T05:06:10.730Z,74.06
2022-12-16T05:07:37.772Z,73.59
2022-12-16T05:08:57.407Z,73.34
2022-12-16T05:10:15.740Z,71.12
2022-12-16T05:11:34.044Z,68.84
2022-12-16T05:12:52.460Z,72.28
2022-12-16T05:14:11.590Z,67.61
2022-12-16T05:15:30.158Z,66.64
2022-12-16T05:16:48.579Z,66.86
2022-12-16T05:18:06.886Z,66.18
2022-12-16T05:19:31.473Z,65.53
2022-12-16T05:20:50.348Z,64.40
2022-12-16T05:22:09.247Z,63.23
2022-12-16T05:23:30.632Z,63.63
2022-12-16T05:24:53.060Z,61.65
2022-12-16T05:26:11.707Z,59.07
2022-12-16T05:27:30.061Z,60.46
2022-12-16T05:28:48.492Z,59.85
2022-12-16T05:30:07.703Z,59.92
2022-12-16T05:31:26.169Z,60.21
2022-12-16T05:32:44.631Z,57.79
2022-12-16T05:34:03.104Z,56.59
2022-12-16T05:35:23.038Z,57.16
2022-12-16T05:36:41.324Z,55.46
2022-12-16T05:37:59.614Z,55.96
2022-12-16T05:39:23.220Z,56.38
2022-12-16T05:40:42.468Z,56.85
2022-12-16T05:42:00.784Z,55.57
2022-12-16T05:43:19.190Z,56.46
2022-12-16T05:44:37.544Z,57.72
2022-12-16T05:45:57.845Z,55.01
2022-12-16T05:47:16.274Z,55.10
2022-12-16T05:48:34.705Z,54.90
2022-12-16T05:49:53.344Z,54.19
2022-12-16T05:51:13.054Z,53.22
2022-12-16T05:52:32.556Z,55.17
2022-12-16T05:53:51.061Z,55.97
2022-12-16T05:55:12.272Z,55.34
2022-12-16T05:56:31.370Z,54.71
2022-12-16T05:57:49.864Z,55.33
2022-12-16T05:59:08.264Z,56.59
2022-12-16T06:00:28.913Z,56.55
2022-12-16T06:01:48.136Z,55.75
2022-12-16T06:03:06.684Z,55.48
2022-12-16T06:04:30.940Z,56.10
2022-12-16T06:05:49.349Z,55.45
2022-12-16T06:07:08.625Z,53.50
2022-12-16T06:08:27.005Z,52.89
2022-12-16T06:09:56.307Z,54.92
2022-12-16T06:11:17.678Z,54.28
2022-12-16T06:12:36.853Z,51.13
2022-12-16T06:13:55.204Z,53.71
2022-12-16T06:15:13.688Z,57.24
2022-12-16T06:16:32.062Z,56.34
2022-12-16T06:17:51.442Z,55.07
2022-12-16T06:19:09.838Z,54.53
2022-12-16T06:20:28.388Z,57.27
2022-12-16T06:21:46.822Z,53.47
2022-12-16T06:23:07.303Z,53.56
2022-12-16T06:24:25.956Z,51.37
2022-12-16T06:25:44.924Z,52.31
2022-12-16T06:27:05.909Z,51.99
2022-12-16T06:28:25.080Z,55.06
2022-12-16T06:29:43.419Z,55.78
2022-12-16T06:31:01.824Z,54.20
2022-12-16T06:32:20.313Z,53.03
2022-12-16T06:33:39.877Z,54.00
2022-12-16T06:34:58.261Z,51.67
2022-12-16T06:36:16.502Z,52.95
2022-12-16T06:37:35.810Z,52.08
2022-12-16T06:38:54.902Z,50.50
2022-12-16T06:40:13.379Z,51.40
2022-12-16T06:41:31.886Z,51.84
2022-12-16T06:42:55.989Z,52.57
2022-12-16T06:44:15.472Z,52.26
2022-12-16T06:45:48.867Z,50.83
2022-12-16T06:47:07.314Z,51.09
2022-12-16T06:48:27.076Z,51.36
2022-12-16T06:49:46.352Z,50.64
2022-12-16T06:51:19.403Z,51.69
2022-12-16T06:52:37.758Z,52.55
2022-12-16T06:53:56.506Z,51.86
2022-12-16T06:55:15.953Z,51.74
2022-12-16T06:56:35.230Z,52.24
2022-12-16T06:57:56.503Z,50.78
2022-12-16T06:59:17.542Z,50.36
2022-12-16T07:00:39.704Z,51.89
2022-12-16T07:01:59.753Z,51.45
2022-12-16T07:03:18.429Z,51.08
2022-12-16T07:04:37.111Z,51.96
2022-12-16T07:05:56.923Z,52.26
2022-12-16T07:07:15.511Z,51.29
2022-12-16T07:08:34.047Z,50.88
2022-12-16T07:09:53.470Z,50.17
2022-12-16T07:11:17.285Z,48.93
2022-12-16T07:12:36.106Z,49.83
2022-12-16T07:14:11.846Z,50.21
2022-12-16T07:15:30.518Z,48.93
2022-12-16T07:16:50.234Z,47.59
2022-12-16T07:18:08.614Z,50.54
2022-12-16T07:19:26.898Z,49.87
2022-12-16T07:20:45.948Z,51.28
2022-12-16T07:22:05.163Z,51.48
2022-12-16T07:23:23.555Z,49.86
2022-12-16T07:24:41.876Z,49.26
2022-12-16T07:26:00.342Z,48.37
2022-12-16T07:27:20.351Z,50.43
2022-12-16T07:28:38.781Z,49.32
2022-12-16T07:29:59.907Z,48.98
2022-12-16T07:31:18.415Z,50.07
2022-12-16T07:32:37.603Z,50.52
2022-12-16T07:33:56.134Z,51.55
2022-12-16T07:35:14.415Z,51.42
2022-12-16T07:36:33.448Z,55.68
2022-12-16T07:37:54.980Z,57.35
2022-12-16T07:39:13.588Z,64.07
2022-12-16T07:40:32.130Z,65.42
2022-12-16T07:41:50.460Z,62.19
2022-12-16T07:43:12.075Z,64.42
2022-12-16T07:44:30.524Z,64.04
2022-12-16T07:45:51.529Z,67.09
2022-12-16T07:47:11.718Z,65.45
2022-12-16T07:48:39.957Z,66.19
2022-12-16T07:49:58.276Z,63.30
2022-12-16T07:51:18.220Z,62.48
2022-12-16T07:52:36.735Z,64.31
2022-12-16T07:54:07.796Z,70.38
2022-12-16T07:55:26.207Z,66.48
2022-12-16T07:56:44.511Z,63.97
2022-12-16T07:58:06.135Z,65.19
2022-12-16T07:59:25.240Z,63.38
2022-12-16T08:00:43.598Z,60.30
2022-12-16T08:02:04.726Z,61.28
2022-12-16T08:03:23.263Z,60.62
2022-12-16T08:04:42.648Z,58.57
2022-12-16T08:06:00.982Z,61.24
2022-12-16T08:07:19.813Z,60.29
2022-12-16T08:08:38.314Z,59.71
2022-12-16T08:09:57.446Z,59.08
2022-12-16T08:11:15.949Z,60.29
2022-12-16T08:12:34.360Z,61.45
2022-12-16T08:13:53.465Z,62.04
2022-12-16T08:15:13.051Z,63.88
2022-12-16T08:16:46.394Z,64.15
2022-12-16T08:18:09.009Z,63.48
2022-12-16T08:19:28.222Z,64.26
2022-12-16T08:20:47.730Z,61.54
2022-12-16T08:22:06.157Z,61.13
2022-12-16T08:23:24.361Z,62.94
2022-12-16T08:24:46.832Z,63.30
2022-12-16T08:26:10.710Z,64.53
2022-12-16T08:27:29.210Z,64.31
2022-12-16T08:28:47.587Z,62.55
2022-12-16T08:30:05.957Z,63.01
2022-12-16T08:31:25.208Z,64.46
2022-12-16T08:32:45.976Z,64.31
2022-12-16T08:34:06.953Z,69.20
2022-12-16T08:35:26.387Z,69.95
2022-12-16T08:36:45.575Z,69.77
2022-12-16T08:38:09.063Z,68.98
2022-12-16T08:39:31.990Z,67.62
2022-12-16T08:40:50.418Z,69.54
2022-12-16T08:42:11.511Z,67.47
2022-12-16T08:43:30.499Z,66.57
2022-12-16T08:44:49.209Z,62.36
2022-12-16T08:46:10.224Z,62.10
2022-12-16T08:47:32.492Z,65.60
2022-12-16T08:48:50.957Z,61.49
2022-12-16T08:50:11.957Z,66.61
2022-12-16T08:51:30.577Z,67.03
2022-12-16T08:52:49.916Z,66.77
2022-12-16T08:54:08.826Z,69.37
2022-12-16T08:55:29.739Z,71.99
2022-12-16T08:56:48.689Z,70.51
2022-12-16T08:58:11.496Z,70.43
2022-12-16T08:59:30.487Z,69.92
2022-12-16T09:00:48.995Z,67.18
2022-12-16T09:02:07.868Z,61.89
2022-12-16T09:03:28.347Z,65.70
2022-12-16T09:04:49.103Z,65.00
2022-12-16T09:06:14.478Z,67.49
2022-12-16T09:07:33.119Z,66.98
2022-12-16T09:08:53.837Z,66.55
2022-12-16T09:10:12.427Z,62.55
2022-12-16T09:11:31.226Z,63.89
2022-12-16T09:12:50.043Z,65.18
2022-12-16T09:14:10.123Z,64.50
2022-12-16T09:15:28.807Z,62.28
2022-12-16T09:16:47.233Z,64.70
2022-12-16T09:18:10.137Z,64.95
2022-12-16T09:19:29.547Z,64.74
2022-12-16T09:20:47.947Z,64.29
2022-12-16T09:22:08.978Z,67.03
2022-12-16T09:23:27.313Z,89.17
2022-12-16T09:24:46.723Z,79.76
2022-12-16T09:26:05.465Z,71.94
2022-12-16T09:27:23.977Z,72.88
2022-12-16T09:28:43.256Z,74.46
2022-12-16T09:30:05.415Z,69.53
2022-12-16T09:31:23.910Z,74.02
2022-12-16T09:32:42.555Z,78.46
2022-12-16T09:34:00.883Z,79.51
2022-12-16T09:35:21.090Z,74.56
2022-12-16T09:36:39.407Z,67.47
2022-12-16T09:38:05.743Z,68.50
2022-12-16T09:39:24.121Z,68.51
2022-12-16T09:40:43.404Z,71.96
2022-12-16T09:42:30.894Z,70.01
2022-12-16T09:44:12.399Z,67.02
2022-12-16T09:45:47.832Z,70.48
2022-12-16T09:47:25.948Z,73.45
2022-12-16T09:49:01.532Z,74.37
2022-12-16T09:50:33.559Z,77.86
2022-12-16T09:51:56.163Z,70.54
2022-12-16T09:53:27.100Z,65.52
2022-12-16T09:55:03.534Z,67.83
2022-12-16T09:56:32.734Z,69.09
2022-12-16T09:57:53.708Z,65.01
2022-12-16T09:59:27.074Z,62.28
2022-12-16T10:00:46.845Z,64.82
2022-12-16T10:02:08.438Z,69.41
2022-12-16T10:03:39.891Z,70.22
2022-12-16T10:05:16.004Z,70.36
2022-12-16T10:06:54.215Z,72.67
2022-12-16T10:08:37.267Z,67.64
2022-12-16T10:10:14.817Z,74.87
2022-12-16T10:11:52.616Z,79.99
2022-12-16T10:13:24.827Z,79.84
2022-12-16T10:14:54.724Z,82.62
2022-12-16T10:16:34.512Z,71.61
2022-12-16T10:18:01.657Z,73.41
2022-12-16T10:19:48.920Z,79.07
2022-12-16T10:21:11.336Z,76.47
2022-12-16T10:22:41.379Z,83.47
2022-12-16T10:24:16.664Z,89.15
2022-12-16T10:25:42.263Z,87.19
2022-12-16T10:27:13.808Z,83.83
2022-12-16T10:28:38.551Z,79.22
2022-12-16T10:30:01.810Z,78.60
2022-12-16T10:31:31.979Z,79.21
2022-12-16T10:32:59.112Z,76.80
2022-12-16T10:34:25.737Z,79.82
2022-12-16T10:35:52.735Z,86.10
2022-12-16T10:37:20.450Z,93.48
2022-12-16T10:38:52.402Z,89.81
2022-12-16T10:40:18.164Z,85.98
2022-12-16T10:41:44.781Z,81.89
2022-12-16T10:43:31.185Z,82.40
2022-12-16T10:45:03.404Z,83.48
2022-12-16T10:46:41.000Z,89.51
2022-12-16T10:48:00.579Z,80.96
2022-12-16T10:49:19.159Z,79.36
2022-12-16T10:50:37.884Z,79.84
2022-12-16T10:51:56.211Z,84.59
2022-12-16T10:53:20.075Z,81.91
2022-12-16T10:54:54.256Z,81.92
2022-12-16T10:56:40.632Z,84.41
2022-12-16T10:58:18.163Z,87.63
2022-12-16T10:59:37.801Z,79.45
2022-12-16T11:01:01.745Z,76.91
2022-12-16T11:02:34.344Z,80.27
2022-12-16T11:03:55.211Z,82.37
2022-12-16T11:05:14.455Z,81.62
2022-12-16T11:06:40.421Z,87.66
2022-12-16T11:08:09.598Z,89.34
2022-12-16T11:09:43.006Z,82.01
2022-12-16T11:11:02.260Z,89.89
2022-12-16T11:12:38.574Z,94.41
2022-12-16T11:13:56.976Z,87.44
2022-12-16T11:15:30.699Z,81.63
2022-12-16T11:16:50.033Z,85.14
2022-12-16T11:18:20.231Z,84.77
2022-12-16T11:19:42.039Z,91.11
2022-12-16T11:21:04.150Z,85.59
2022-12-16T11:22:30.728Z,77.42
2022-12-16T11:23:49.155Z,78.22
2022-12-16T11:25:28.671Z,78.62
2022-12-16T11:26:47.040Z,83.31
2022-12-16T11:28:19.560Z,78.28
2022-12-16T11:29:38.167Z,77.84
2022-12-16T11:30:56.570Z,86.52
2022-12-16T11:32:49.103Z,81.30
2022-12-16T11:34:11.354Z,75.81
2022-12-16T11:35:39.617Z,68.47
2022-12-16T11:37:03.490Z,70.92
2022-12-16T11:38:37.006Z,79.03
2022-12-16T11:40:08.346Z,70.42
2022-12-16T11:41:45.963Z,73.85
2022-12-16T11:43:11.657Z,83.74
2022-12-16T11:44:44.509Z,92.02
2022-12-16T11:46:07.959Z,88.86
2022-12-16T11:47:39.712Z,83.83
2022-12-16T11:49:05.211Z,81.88
2022-12-16T11:50:33.018Z,89.69
2022-12-16T11:52:28.116Z,85.91
2022-12-16T11:53:49.950Z,79.39
2022-12-16T11:55:56.011Z,78.02
2022-12-16T11:57:09.432Z,81.80
2022-12-16T11:58:43.386Z,84.55
2022-12-16T12:00:14.654Z,87.30
2022-12-16T12:01:45.470Z,86.18
2022-12-16T12:03:16.931Z,87.47
2022-12-16T12:04:35.532Z,85.97
2022-12-16T12:06:20.683Z,88.54
2022-12-16T12:07:50.516Z,102.41
2022-12-16T12:09:22.610Z,98.68
2022-12-16T12:11:11.591Z,90.24
2022-12-16T12:12:48.060Z,92.57
2022-12-16T12:14:27.155Z,87.81
2022-12-16T12:16:01.164Z,84.27
2022-12-16T12:17:47.044Z,91.39
2022-12-16T12:19:21.569Z,104.35
2022-12-16T12:21:02.560Z,89.67
2022-12-16T12:22:36.613Z,102.88
2022-12-16T12:24:13.768Z,101.80
2022-12-16T12:25:48.008Z,90.85
2022-12-16T12:27:19.547Z,87.13
2022-12-16T12:28:58.988Z,97.66
2022-12-16T12:30:25.639Z,98.23
2022-12-16T12:32:04.407Z,93.37
2022-12-16T12:33:46.885Z,93.86
2022-12-16T12:35:28.331Z,96.56
2022-12-16T12:37:04.472Z,84.83
2022-12-16T12:38:35.206Z,80.15
2022-12-16T12:40:12.614Z,85.42
2022-12-16T12:41:43.252Z,86.16
2022-12-16T12:43:09.031Z,81.08
2022-12-16T12:44:54.600Z,87.76
2022-12-16T12:46:30.216Z,93.55
2022-12-16T12:48:02.840Z,92.84
2022-12-16T12:49:37.562Z,86.83
2022-12-16T12:51:21.408Z,82.41
2022-12-16T12:53:18.657Z,82.60
2022-12-16T12:54:57.647Z,81.39
2022-12-16T12:56:31.986Z,81.61
2022-12-16T12:57:56.936Z,81.06
2022-12-16T12:59:27.405Z,76.79
2022-12-16T13:00:57.275Z,77.54
2022-12-16T13:02:20.678Z,80.00
2022-12-16T13:03:54.385Z,81.99
2022-12-16T13:05:19.731Z,83.42
2022-12-16T13:06:50.126Z,83.47
2022-12-16T13:08:09.572Z,80.08
2022-12-16T13:09:45.367Z,86.99
2022-12-16T13:11:03.652Z,87.83
2022-12-16T13:12:50.321Z,87.83
2022-12-16T13:14:08.647Z,87.39
2022-12-16T13:15:48.141Z,88.99
2022-12-16T13:17:17.996Z,85.51
2022-12-16T13:18:49.345Z,82.79
2022-12-16T13:20:14.437Z,88.91
2022-12-16T13:22:02.205Z,77.72
2022-12-16T13:23:46.939Z,82.34
2022-12-16T13:25:08.130Z,76.58
2022-12-16T13:26:26.631Z,80.45
2022-12-16T13:28:05.003Z,76.68
2022-12-16T13:29:38.350Z,77.98
2022-12-16T13:31:25.255Z,74.96
2022-12-16T13:32:44.664Z,81.16
2022-12-16T13:34:12.540Z,77.77
2022-12-16T13:35:34.438Z,78.10
2022-12-16T13:36:55.924Z,79.37
2022-12-16T13:38:18.655Z,80.36
2022-12-16T13:39:42.744Z,77.80
2022-12-16T13:41:11.912Z,72.63
2022-12-16T13:43:05.159Z,75.43
2022-12-16T13:44:24.897Z,86.89
2022-12-16T13:45:50.988Z,92.68
2022-12-16T13:47:12.368Z,87.34
2022-12-16T13:48:58.702Z,85.09
2022-12-16T13:50:53.247Z,86.00
2022-12-16T13:52:27.707Z,76.96
2022-12-16T13:53:53.670Z,80.99
2022-12-16T13:55:30.530Z,82.23
2022-12-16T13:56:56.977Z,80.55
2022-12-16T13:58:29.121Z,83.34
2022-12-16T13:59:49.030Z,83.37
2022-12-16T14:01:21.211Z,83.01
2022-12-16T14:02:54.077Z,81.98
2022-12-16T14:04:16.223Z,77.01
2022-12-16T14:05:44.696Z,80.50
2022-12-16T14:07:05.721Z,75.74
2022-12-16T14:08:43.103Z,77.40
2022-12-16T14:10:05.397Z,77.71
2022-12-16T14:11:40.189Z,85.00
2022-12-16T14:13:21.877Z,97.24
2022-12-16T14:14:51.273Z,104.79
2022-12-16T14:16:26.431Z,116.51
2022-12-16T14:18:01.094Z,133.83
2022-12-16T14:19:44.133Z,131.19
2022-12-16T14:21:13.611Z,132.19
2022-12-16T14:22:58.345Z,105.39
2022-12-16T14:24:35.896Z,99.13
2022-12-16T14:26:00.644Z,96.99
2022-12-16T14:27:32.799Z,100.48
2022-12-16T14:28:54.976Z,99.26
2022-12-16T14:30:14.931Z,132.95
2022-12-16T14:31:39.630Z,117.93
2022-12-16T14:32:58.165Z,104.54
2022-12-16T14:34:19.404Z,98.84
2022-12-16T14:35:42.806Z,101.95
2022-12-16T14:37:04.470Z,108.44
2022-12-16T14:38:42.289Z,126.44
2022-12-16T14:40:05.825Z,131.34
2022-12-16T14:41:30.290Z,126.27
2022-12-16T14:42:48.867Z,128.33
2022-12-16T14:44:09.981Z,114.57
2022-12-16T14:45:44.834Z,134.97
2022-12-16T14:47:08.358Z,121.04
2022-12-16T14:48:37.481Z,109.98
2022-12-16T14:50:08.049Z,102.11
2022-12-16T14:51:45.734Z,105.76
2022-12-16T14:53:29.565Z,101.94
2022-12-16T14:54:54.785Z,103.20
2022-12-16T14:56:31.103Z,106.79
2022-12-16T14:57:50.112Z,98.62
2022-12-16T14:59:29.792Z,109.21
2022-12-16T15:00:54.751Z,111.54
2022-12-16T15:02:35.861Z,107.70
2022-12-16T15:03:59.569Z,104.19
2022-12-16T15:05:20.800Z,100.49
2022-12-16T15:06:45.383Z,105.27
2022-12-16T15:08:07.050Z,106.50
2022-12-16T15:09:39.430Z,111.41
2022-12-16T15:10:59.758Z,108.25
2022-12-16T15:12:19.426Z,106.26
2022-12-16T15:13:38.713Z,103.69
2022-12-16T15:14:58.584Z,116.30
2022-12-16T15:16:21.841Z,126.34
2022-12-16T15:17:47.015Z,143.70
2022-12-16T15:19:16.312Z,145.29
2022-12-16T15:20:41.801Z,112.14
2022-12-16T15:22:02.565Z,107.58
2022-12-16T15:23:35.248Z,107.20
2022-12-16T15:25:03.859Z,107.62
2022-12-16T15:26:24.303Z,110.83
2022-12-16T15:27:51.809Z,117.63
2022-12-16T15:29:10.601Z,119.18
2022-12-16T15:30:52.303Z,118.45
2022-12-16T15:32:10.637Z,133.96
2022-12-16T15:33:34.961Z,153.09
2022-12-16T15:35:03.791Z,150.37
2022-12-16T15:36:40.627Z,140.80
2022-12-16T15:38:03.897Z,131.93
2022-12-16T15:39:52.233Z,129.28
2022-12-16T15:41:10.729Z,141.80
2022-12-16T15:42:39.804Z,148.45
2022-12-16T15:44:03.095Z,139.76
2022-12-16T15:45:35.617Z,123.55
2022-12-16T15:46:54.343Z,139.93
2022-12-16T15:48:14.143Z,140.71
2022-12-16T15:49:39.972Z,132.03
2022-12-16T15:51:09.407Z,142.26
2022-12-16T15:52:53.209Z,121.37
2022-12-16T15:54:19.430Z,125.39
2022-12-16T15:55:47.904Z,128.52
2022-12-16T15:57:07.050Z,130.35
2022-12-16T15:58:40.067Z,135.06
2022-12-16T16:00:13.508Z,145.51
2022-12-16T16:01:36.629Z,155.98
2022-12-16T16:03:04.324Z,150.24
2022-12-16T16:04:37.412Z,131.15
2022-12-16T16:05:56.171Z,124.89
2022-12-16T16:07:14.858Z,125.35
2022-12-16T16:08:34.341Z,119.48
2022-12-16T16:09:55.064Z,120.21
2022-12-16T16:11:16.423Z,117.61
2022-12-16T16:12:38.178Z,132.32
2022-12-16T16:14:04.241Z,144.69
2022-12-16T16:15:28.801Z,139.84
2022-12-16T16:16:48.099Z,122.93
2022-12-16T16:18:12.186Z,116.70
2022-12-16T16:19:39.827Z,112.02
2022-12-16T16:21:05.351Z,115.52
2022-12-16T16:22:28.938Z,121.04
2022-12-16T16:23:50.928Z,118.56
2022-12-16T16:25:10.480Z,114.95
2022-12-16T16:26:37.244Z,109.88
2022-12-16T16:27:55.561Z,111.22
2022-12-16T16:29:14.084Z,106.34
2022-12-16T16:30:33.371Z,111.50
2022-12-16T16:31:51.740Z,105.10
2022-12-16T16:33:12.806Z,101.25
2022-12-16T16:34:32.027Z,97.80
2022-12-16T16:35:51.289Z,100.67
2022-12-16T16:37:14.612Z,99.29
2022-12-16T16:38:33.038Z,97.72
2022-12-16T16:39:51.338Z,98.91
2022-12-16T16:41:11.039Z,103.62
2022-12-16T16:42:31.993Z,114.77
2022-12-16T16:43:50.404Z,112.94
2022-12-16T16:45:10.935Z,110.73
2022-12-16T16:46:49.963Z,119.67
2022-12-16T16:48:19.761Z,131.62
2022-12-16T16:49:44.530Z,126.99
2022-12-16T16:51:03.384Z,122.36
2022-12-16T16:52:27.809Z,116.22
2022-12-16T16:53:46.195Z,109.91
2022-12-16T16:55:04.527Z,125.10
2022-12-16T16:56:27.622Z,113.72
2022-12-16T16:57:53.581Z,108.50
2022-12-16T16:59:11.980Z,97.95
2022-12-16T17:00:32.007Z,92.28
2022-12-16T17:01:51.224Z,90.72
2022-12-16T17:03:10.914Z,91.95
2022-12-16T17:04:29.453Z,88.08
2022-12-16T17:05:48.010Z,91.91
2022-12-16T17:07:06.761Z,99.77
2022-12-16T17:08:26.033Z,97.41
2022-12-16T17:09:44.520Z,96.67
2022-12-16T17:11:03.493Z,103.52
2022-12-16T17:12:35.551Z,112.26
2022-12-16T17:13:57.380Z,108.79
2022-12-16T17:15:15.836Z,110.26
2022-12-16T17:16:34.222Z,105.05